Time;durP1;ratioP1;P1;durP2;ratioP2;P2;SDS_P1;SDS_P2;PMS_P1;PMS_P2;Temp;Humidity;BMP_temperature;BMP_pressure;BME280_temperature;BME280_humidity;BME280_pressure;Samples;Min_cycle;Max_cycle;Signal;HPM_P1;HPM_P2
2021/09/02 00:02:21;;;;;;;8.98;4.97;;;16.20;99.90;;;;;;5070754;28;20469;-64
2021/09/02 00:04:46;;;;;;;6.78;3.75;;;16.30;99.90;;;;;;5071190;28;20048;-61
2021/09/02 00:07:12;;;;;;;10.20;4.45;;;16.20;99.90;;;;;;5070772;28;20470;-61
2021/09/02 00:09:38;;;;;;;7.70;4.95;;;16.20;99.90;;;;;;5070008;28;20529;-60
2021/09/02 00:12:04;;;;;;;11.68;5.85;;;16.20;99.90;;;;;;5070625;28;20090;-61
2021/09/02 00:14:30;;;;;;;6.28;5.03;;;16.20;99.90;;;;;;5070069;28;20198;-62
2021/09/02 00:16:55;;;;;;;10.18;4.53;;;16.10;99.90;;;;;;5071007;28;20112;-62
2021/09/02 00:19:21;;;;;;;10.23;4.93;;;16.10;99.90;;;;;;5070417;28;20025;-62
2021/09/02 00:21:47;;;;;;;11.93;5.22;;;16.10;99.90;;;;;;5074188;28;20020;-62
2021/09/02 00:24:13;;;;;;;7.63;4.68;;;16.00;99.90;;;;;;5084744;28;20053;-62
2021/09/02 00:26:42;;;;;;;9.75;4.97;;;15.90;99.90;;;;;;5073621;28;20059;-62
2021/09/02 00:29:07;;;;;;;8.50;4.57;;;15.90;99.90;;;;;;5075664;28;20090;-61
2021/09/02 00:31:33;;;;;;;8.70;4.80;;;15.90;99.90;;;;;;5073529;28;20033;-61
2021/09/02 00:33:59;;;;;;;8.95;4.70;;;15.90;99.90;;;;;;5073562;28;20447;-61
2021/09/02 00:36:24;;;;;;;8.48;4.72;;;15.80;99.90;;;;;;5071264;28;20042;-62
2021/09/02 00:38:50;;;;;;;7.78;4.32;;;15.90;99.90;;;;;;5073045;28;20386;-62
2021/09/02 00:41:15;;;;;;;9.73;4.53;;;16.00;99.90;;;;;;5074289;28;20039;-61
2021/09/02 00:43:42;;;;;;;11.85;5.63;;;15.90;99.90;;;;;;5073838;28;20103;-61
2021/09/02 00:46:15;;;;;;;10.15;5.03;;;15.90;99.90;;;;;;5074259;28;20052;-61
2021/09/02 00:48:46;;;;;;;5.70;4.22;;;15.90;99.90;;;;;;5072600;28;20112;-61
2021/09/02 00:51:13;;;;;;;6.55;4.57;;;15.90;99.90;;;;;;5074278;28;20028;-61
2021/09/02 00:53:39;;;;;;;9.82;5.80;;;15.80;99.90;;;;;;5073616;28;20049;-61
2021/09/02 00:56:05;;;;;;;9.77;4.18;;;15.80;99.90;;;;;;5072918;28;20410;-61
2021/09/02 00:58:30;;;;;;;15.27;6.00;;;15.80;99.90;;;;;;5073361;28;20385;-61
2021/09/02 01:00:56;;;;;;;8.95;4.43;;;15.60;99.90;;;;;;5074246;28;20138;-61
2021/09/02 01:03:22;;;;;;;9.88;5.22;;;15.60;99.90;;;;;;5073912;28;20036;-61
2021/09/02 01:05:50;;;;;;;8.00;5.40;;;15.70;99.90;;;;;;5074626;28;20043;-61
2021/09/02 01:08:17;;;;;;;7.13;5.07;;;15.60;99.90;;;;;;5072840;28;20122;-61
2021/09/02 01:10:45;;;;;;;12.40;5.57;;;15.60;99.90;;;;;;5073243;28;20033;-61
2021/09/02 01:13:11;;;;;;;7.97;5.03;;;15.60;99.90;;;;;;5072625;28;20120;-61
2021/09/02 01:15:36;;;;;;;10.88;6.40;;;15.50;99.90;;;;;;5073455;28;20032;-60
2021/09/02 01:18:02;;;;;;;7.93;4.95;;;15.50;99.90;;;;;;5073736;28;20459;-60
2021/09/02 01:20:30;;;;;;;8.05;4.63;;;15.40;99.90;;;;;;5071931;28;20020;-61
2021/09/02 01:22:59;;;;;;;10.13;5.68;;;15.40;99.90;;;;;;5073423;28;20102;-61
2021/09/02 01:25:46;;;;;;;9.60;4.88;;;15.30;99.90;;;;;;5073203;28;20038;-61
2021/09/02 01:28:13;;;;;;;6.70;5.13;;;15.30;99.90;;;;;;5073164;28;20048;-61
2021/09/02 01:30:40;;;;;;;9.43;5.13;;;15.30;99.90;;;;;;5072759;28;20070;-61
2021/09/02 01:33:10;;;;;;;8.35;5.25;;;15.30;99.90;;;;;;5072292;28;20039;-63
2021/09/02 01:35:36;;;;;;;7.65;4.90;;;15.40;99.90;;;;;;5072750;28;20068;-61
2021/09/02 01:38:06;;;;;;;10.40;5.43;;;15.20;99.90;;;;;;5071815;28;20040;-61
2021/09/02 01:40:44;;;;;;;10.10;5.75;;;15.30;99.90;;;;;;5071612;28;20024;-61
2021/09/02 01:43:13;;;;;;;8.43;5.15;;;15.20;99.90;;;;;;5073503;28;20021;-61
2021/09/02 01:45:39;;;;;;;7.43;5.25;;;15.20;99.90;;;;;;5072467;28;20512;-62
2021/09/02 01:48:06;;;;;;;10.00;5.28;;;15.30;99.90;;;;;;5073273;28;20028;-61
2021/09/02 01:50:35;;;;;;;9.93;6.07;;;15.20;99.90;;;;;;5071237;28;20474;-61
2021/09/02 01:53:07;;;;;;;12.43;5.95;;;15.20;99.90;;;;;;5072833;28;20115;-61
2021/09/02 01:55:34;;;;;;;12.38;6.07;;;15.20;99.90;;;;;;5071211;28;20062;-61
2021/09/02 01:58:00;;;;;;;8.05;5.53;;;15.20;99.90;;;;;;5071640;28;20121;-61
2021/09/02 02:00:26;;;;;;;6.88;5.13;;;15.20;99.90;;;;;;5072267;28;20485;-61
2021/09/02 02:02:51;;;;;;;7.97;5.35;;;15.10;99.90;;;;;;5073004;28;20032;-60
2021/09/02 02:05:18;;;;;;;8.73;5.72;;;15.20;99.90;;;;;;5072602;28;20213;-61
2021/09/02 02:07:44;;;;;;;6.60;5.55;;;15.20;99.90;;;;;;5071659;28;20121;-60
2021/09/02 02:10:14;;;;;;;14.95;5.75;;;15.20;99.90;;;;;;5072761;28;20046;-60
2021/09/02 02:12:39;;;;;;;8.88;6.25;;;15.10;99.90;;;;;;5072047;28;20021;-61
2021/09/02 02:15:07;;;;;;;11.55;6.35;;;15.10;99.90;;;;;;5072511;28;20093;-61
2021/09/02 02:17:33;;;;;;;9.07;5.00;;;15.10;99.90;;;;;;5072003;28;20036;-61
2021/09/02 02:19:59;;;;;;;11.32;6.63;;;15.10;99.90;;;;;;5072466;28;20021;-60
2021/09/02 02:22:25;;;;;;;14.20;5.80;;;15.00;99.90;;;;;;5071486;28;20043;-64
2021/09/02 02:24:50;;;;;;;8.60;5.32;;;15.00;99.90;;;;;;5070993;28;20059;-61
2021/09/02 02:27:16;;;;;;;12.90;6.15;;;15.00;99.90;;;;;;5071065;28;20119;-61
2021/09/02 02:29:41;;;;;;;7.15;5.22;;;14.90;99.90;;;;;;5071826;28;20434;-60
2021/09/02 02:32:07;;;;;;;9.40;6.13;;;14.80;99.90;;;;;;5071090;28;20078;-61
2021/09/02 02:34:33;;;;;;;10.40;6.07;;;14.70;99.90;;;;;;5070291;28;20400;-61
2021/09/02 02:36:59;;;;;;;11.32;5.97;;;14.70;99.90;;;;;;5072587;28;20071;-61
2021/09/02 02:39:25;;;;;;;8.35;5.75;;;14.80;99.90;;;;;;5072583;28;20115;-63
2021/09/02 02:41:50;;;;;;;9.05;5.80;;;14.90;99.90;;;;;;5071991;28;20054;-62
2021/09/02 02:44:16;;;;;;;10.13;5.63;;;14.80;99.90;;;;;;5070774;28;20040;-60
2021/09/02 02:46:41;;;;;;;10.15;6.75;;;14.90;99.90;;;;;;5068716;28;20028;-61
2021/09/02 02:49:07;;;;;;;12.02;6.25;;;14.90;99.90;;;;;;5071665;28;20056;-61
2021/09/02 02:51:35;;;;;;;9.75;6.18;;;14.80;99.90;;;;;;5069791;28;20039;-61
2021/09/02 02:54:01;;;;;;;17.50;6.68;;;14.80;99.90;;;;;;5071912;28;20025;-61
2021/09/02 02:56:26;;;;;;;14.05;6.88;;;14.80;99.90;;;;;;5071194;28;20431;-67
2021/09/02 02:58:52;;;;;;;8.00;5.10;;;14.80;99.90;;;;;;5072104;28;20033;-61
2021/09/02 03:01:18;;;;;;;12.52;5.78;;;14.70;99.90;;;;;;5070185;28;20450;-61
2021/09/02 03:03:44;;;;;;;9.60;6.00;;;14.60;99.90;;;;;;5069719;28;20123;-61
2021/09/02 03:06:11;;;;;;;11.68;6.07;;;14.60;99.90;;;;;;5071299;28;20175;-62
2021/09/02 03:08:37;;;;;;;9.80;5.75;;;14.70;99.90;;;;;;5071271;28;20059;-61
2021/09/02 03:11:02;;;;;;;8.23;5.70;;;14.60;99.90;;;;;;5070130;28;20377;-60
2021/09/02 03:13:28;;;;;;;7.95;5.65;;;14.70;99.90;;;;;;5070952;28;20394;-61
2021/09/02 03:15:54;;;;;;;14.00;6.20;;;14.70;99.90;;;;;;5070040;28;20032;-61
2021/09/02 03:18:19;;;;;;;11.18;6.25;;;14.70;99.90;;;;;;5071220;28;20037;-60
2021/09/02 03:20:45;;;;;;;9.52;5.53;;;14.60;99.90;;;;;;5069268;28;20029;-61
2021/09/02 03:23:10;;;;;;;9.63;5.55;;;14.60;99.90;;;;;;5069562;28;20048;-60
2021/09/02 03:25:36;;;;;;;11.43;6.60;;;14.50;99.90;;;;;;5070623;28;20028;-60
2021/09/02 03:28:02;;;;;;;12.55;6.93;;;14.50;99.90;;;;;;5070117;28;20083;-61
2021/09/02 03:30:28;;;;;;;13.68;6.95;;;14.40;99.90;;;;;;5070802;28;20063;-72
2021/09/02 03:32:53;;;;;;;9.38;5.97;;;14.50;99.90;;;;;;5069602;28;20036;-60
2021/09/02 03:35:19;;;;;;;9.93;5.72;;;14.40;99.90;;;;;;5069679;28;20078;-61
2021/09/02 03:37:45;;;;;;;11.30;6.05;;;14.40;99.90;;;;;;5070130;28;20462;-60
2021/09/02 03:40:11;;;;;;;9.20;6.05;;;14.40;99.90;;;;;;5069812;28;20032;-60
2021/09/02 03:42:36;;;;;;;10.48;6.22;;;14.40;99.90;;;;;;5070248;28;20020;-60
2021/09/02 03:45:02;;;;;;;9.80;6.15;;;14.50;99.90;;;;;;5070707;28;20162;-60
2021/09/02 03:47:28;;;;;;;11.90;6.43;;;14.60;99.90;;;;;;5071022;28;20421;-60
2021/09/02 03:49:54;;;;;;;11.85;6.72;;;14.50;99.90;;;;;;5069370;28;20032;-60
2021/09/02 03:52:20;;;;;;;7.85;5.63;;;14.40;99.90;;;;;;5070728;28;20040;-60
2021/09/02 03:54:45;;;;;;;10.15;5.95;;;14.30;99.90;;;;;;5068641;28;20312;-60
2021/09/02 03:57:11;;;;;;;13.43;6.20;;;14.30;99.90;;;;;;5069451;28;20032;-60
2021/09/02 03:59:36;;;;;;;9.20;6.38;;;14.40;99.90;;;;;;5068575;28;20091;-60
2021/09/02 04:02:02;;;;;;;18.30;6.20;;;14.30;99.90;;;;;;5070471;28;20454;-60
2021/09/02 04:04:28;;;;;;;22.92;7.82;;;14.40;99.90;;;;;;5070664;28;20138;-60
2021/09/02 04:06:53;;;;;;;13.02;6.80;;;14.30;99.90;;;;;;5069703;28;20435;-60
2021/09/02 04:09:19;;;;;;;14.18;6.45;;;14.30;99.90;;;;;;5069203;28;20186;-60
2021/09/02 04:11:44;;;;;;;11.82;6.25;;;14.30;99.90;;;;;;5069654;28;20024;-61
2021/09/02 04:14:10;;;;;;;13.05;6.90;;;14.40;99.90;;;;;;5069539;28;20020;-62
2021/09/02 04:16:36;;;;;;;9.52;6.45;;;14.30;99.90;;;;;;5069612;28;20029;-62
2021/09/02 04:19:01;;;;;;;12.00;5.95;;;14.20;99.90;;;;;;5070022;28;20028;-61
2021/09/02 04:21:27;;;;;;;12.10;6.60;;;14.20;99.90;;;;;;5069188;28;20024;-61
2021/09/02 04:23:52;;;;;;;11.25;6.72;;;14.30;99.90;;;;;;5068346;28;20127;-62
2021/09/02 04:26:19;;;;;;;9.18;6.22;;;14.10;99.90;;;;;;5069213;28;20358;-61
2021/09/02 04:28:45;;;;;;;14.00;7.63;;;14.10;99.90;;;;;;5069549;28;20032;-60
2021/09/02 04:31:11;;;;;;;13.93;6.65;;;14.20;99.90;;;;;;5070161;28;20032;-60
2021/09/02 04:33:36;;;;;;;14.02;5.82;;;14.20;99.90;;;;;;5068245;28;20025;-60
2021/09/02 04:36:02;;;;;;;16.27;6.07;;;14.30;99.90;;;;;;5069807;28;20136;-60
2021/09/02 04:38:27;;;;;;;18.05;8.30;;;14.20;99.90;;;;;;5068581;28;20469;-61
2021/09/02 04:40:53;;;;;;;11.52;6.80;;;14.20;99.90;;;;;;5068310;28;20024;-61
2021/09/02 04:43:19;;;;;;;12.15;6.88;;;14.20;99.90;;;;;;5069995;28;20358;-61
2021/09/02 04:45:44;;;;;;;14.80;7.25;;;14.30;99.90;;;;;;5068242;28;20378;-61
2021/09/02 04:48:17;;;;;;;9.05;6.40;;;14.30;99.90;;;;;;5070450;28;20024;-61
2021/09/02 04:50:45;;;;;;;15.27;7.07;;;14.20;99.90;;;;;;5069555;28;20119;-60
2021/09/02 04:53:11;;;;;;;9.80;6.63;;;14.20;99.90;;;;;;5068716;28;20055;-62
2021/09/02 04:55:37;;;;;;;11.27;6.60;;;14.30;99.90;;;;;;5068510;28;20315;-61
2021/09/02 04:58:08;;;;;;;15.32;6.25;;;14.30;99.90;;;;;;5069225;28;20400;-61
2021/09/02 05:00:35;;;;;;;11.65;8.30;;;14.20;99.90;;;;;;5068817;28;20032;-68
2021/09/02 05:03:00;;;;;;;14.73;7.82;;;14.20;99.90;;;;;;5067841;28;20033;-60
2021/09/02 05:05:27;;;;;;;16.00;7.53;;;14.30;99.90;;;;;;5069272;28;20074;-61
2021/09/02 05:07:53;;;;;;;9.07;6.30;;;14.20;99.90;;;;;;5067686;28;20370;-62
2021/09/02 05:10:19;;;;;;;11.18;7.88;;;14.30;99.90;;;;;;5072618;28;20374;-61
2021/09/02 05:12:44;;;;;;;12.93;7.63;;;14.00;99.90;;;;;;5072970;28;20138;-61
2021/09/02 05:15:10;;;;;;;12.23;6.93;;;14.10;99.90;;;;;;5073551;28;20135;-61
2021/09/02 05:17:35;;;;;;;12.63;6.65;;;14.20;99.90;;;;;;5071547;28;20033;-62
2021/09/02 05:20:02;;;;;;;16.20;8.23;;;14.20;99.90;;;;;;5073583;28;20040;-62
2021/09/02 05:22:28;;;;;;;15.85;6.47;;;14.20;99.90;;;;;;5071592;28;20029;-62
2021/09/02 05:24:54;;;;;;;11.65;7.47;;;14.30;99.90;;;;;;5072461;28;20513;-62
2021/09/02 05:27:19;;;;;;;12.63;6.55;;;14.30;99.90;;;;;;5073023;28;20111;-61
2021/09/02 05:29:45;;;;;;;12.90;6.47;;;14.40;99.90;;;;;;5071218;28;20120;-61
2021/09/02 05:32:12;;;;;;;17.73;7.25;;;14.60;99.90;;;;;;5073147;28;20060;-60
2021/09/02 05:34:38;;;;;;;10.52;7.00;;;14.50;99.90;;;;;;5072359;28;20129;-61
2021/09/02 05:37:04;;;;;;;13.80;7.57;;;14.50;99.90;;;;;;5071504;28;20025;-61
2021/09/02 05:39:30;;;;;;;10.20;6.30;;;14.50;99.90;;;;;;5071004;28;20128;-61
2021/09/02 05:41:56;;;;;;;10.82;7.00;;;14.70;99.90;;;;;;5070339;28;20187;-61
2021/09/02 05:44:22;;;;;;;10.35;7.32;;;14.70;99.90;;;;;;5071156;28;20024;-61
2021/09/02 05:46:47;;;;;;;11.27;7.38;;;14.80;99.90;;;;;;5071642;28;20043;-60
2021/09/02 05:49:13;;;;;;;14.52;6.35;;;14.90;99.90;;;;;;5072524;28;20159;-60
2021/09/02 05:51:39;;;;;;;18.30;7.15;;;15.00;99.90;;;;;;5071601;28;20059;-61
2021/09/02 05:54:04;;;;;;;12.50;6.30;;;15.00;99.90;;;;;;5072645;28;20050;-61
2021/09/02 05:56:30;;;;;;;12.80;6.68;;;14.90;99.90;;;;;;5072042;28;20044;-61
2021/09/02 05:58:56;;;;;;;14.15;6.95;;;15.00;99.90;;;;;;5070301;28;20348;-61
2021/09/02 06:01:22;;;;;;;10.23;7.10;;;15.10;99.90;;;;;;5072326;28;20415;-61
2021/09/02 06:03:48;;;;;;;10.73;6.53;;;15.20;99.90;;;;;;5071859;28;20027;-62
2021/09/02 06:06:14;;;;;;;10.82;6.50;;;15.30;99.90;;;;;;5072008;28;20024;-62
2021/09/02 06:08:40;;;;;;;15.10;6.80;;;15.30;99.90;;;;;;5070269;28;20043;-63
2021/09/02 06:11:06;;;;;;;16.02;6.93;;;15.40;99.90;;;;;;5072010;28;20040;-61
2021/09/02 06:13:33;;;;;;;14.35;7.05;;;15.50;99.90;;;;;;5072239;28;20036;-61
2021/09/02 06:16:02;;;;;;;12.93;7.70;;;15.40;99.90;;;;;;5070082;28;20383;-61
2021/09/02 06:18:31;;;;;;;13.60;6.85;;;15.50;99.90;;;;;;5071972;28;20060;-62
2021/09/02 06:20:56;;;;;;;12.00;5.93;;;15.70;99.90;;;;;;5068945;28;20032;-60
2021/09/02 06:23:22;;;;;;;10.75;6.28;;;15.90;99.90;;;;;;5071556;28;20054;-62
2021/09/02 06:25:48;;;;;;;14.05;7.03;;;16.00;99.90;;;;;;5070787;28;20033;-61
2021/09/02 06:28:13;;;;;;;10.48;6.18;;;16.00;99.90;;;;;;5071963;28;20051;-60
2021/09/02 06:30:39;;;;;;;12.00;6.25;;;16.10;99.90;;;;;;5069575;28;20120;-64
2021/09/02 06:33:05;;;;;;;10.98;8.05;;;16.20;99.90;;;;;;5070008;28;20033;-61
2021/09/02 06:35:31;;;;;;;12.10;6.75;;;16.30;99.90;;;;;;5071876;28;20036;-61
2021/09/02 06:37:57;;;;;;;11.27;5.95;;;16.40;99.90;;;;;;5070421;28;20031;-62
2021/09/02 06:40:22;;;;;;;7.97;5.72;;;16.50;99.90;;;;;;5071564;28;20025;-62
2021/09/02 06:42:48;;;;;;;9.60;5.43;;;16.80;99.90;;;;;;5069434;28;20078;-61
2021/09/02 06:45:14;;;;;;;12.40;6.20;;;17.00;99.90;;;;;;5072630;28;20136;-62
2021/09/02 06:47:40;;;;;;;11.68;6.45;;;17.10;99.90;;;;;;5083153;28;20024;-70
2021/09/02 06:50:12;;;;;;;6.85;4.32;;;17.10;99.90;;;;;;5090059;28;20115;-66
2021/09/02 06:52:38;;;;;;;12.73;5.28;;;17.50;99.90;;;;;;5090335;28;20096;-63
2021/09/02 06:55:04;;;;;;;10.90;4.25;;;17.90;99.90;;;;;;5090814;28;20070;-56
2021/09/02 06:57:30;;;;;;;9.20;3.58;;;18.60;99.90;;;;;;5091472;28;20369;-57
2021/09/02 06:59:56;;;;;;;10.70;3.13;;;19.10;99.90;;;;;;5087580;28;20026;-58
2021/09/02 07:02:22;;;;;;;6.78;2.90;;;19.70;99.90;;;;;;5068315;28;20042;-57
2021/09/02 07:04:48;;;;;;;6.93;3.92;;;19.90;99.90;;;;;;5068505;28;20547;-56
2021/09/02 07:07:13;;;;;;;9.32;4.13;;;20.20;99.90;;;;;;5067954;28;20028;-56
2021/09/02 07:09:39;;;;;;;8.10;4.22;;;20.30;99.90;;;;;;5068811;28;20024;-57
2021/09/02 07:12:05;;;;;;;6.55;3.78;;;20.50;99.90;;;;;;5067810;28;20074;-55
2021/09/02 07:14:31;;;;;;;8.65;3.75;;;20.70;99.90;;;;;;5067448;28;20149;-56
2021/09/02 07:16:57;;;;;;;5.97;3.40;;;20.80;99.90;;;;;;5066548;28;20107;-56
2021/09/02 07:19:22;;;;;;;8.13;3.97;;;20.90;99.90;;;;;;5067588;28;20028;-55
2021/09/02 07:21:48;;;;;;;22.25;7.57;;;20.90;99.90;;;;;;5066986;28;20401;-58
2021/09/02 07:24:14;;;;;;;14.63;5.93;;;20.90;99.90;;;;;;5069002;28;20052;-56
2021/09/02 07:26:40;;;;;;;11.70;5.68;;;20.90;99.90;;;;;;5069120;28;20033;-56
2021/09/02 07:29:09;;;;;;;11.60;6.15;;;20.90;99.90;;;;;;5068015;28;20428;-55
2021/09/02 07:31:35;;;;;;;11.10;5.25;;;21.00;99.90;;;;;;5068421;28;20052;-56
2021/09/02 07:34:02;;;;;;;9.90;4.72;;;21.10;99.90;;;;;;5069488;28;20040;-57
2021/09/02 07:36:28;;;;;;;11.38;4.60;;;21.10;99.90;;;;;;5069058;28;20386;-56
2021/09/02 07:38:54;;;;;;;7.95;4.53;;;21.20;99.90;;;;;;5069507;28;20056;-54
2021/09/02 07:41:19;;;;;;;7.65;4.18;;;21.30;99.90;;;;;;5070411;28;20462;-57
2021/09/02 07:43:45;;;;;;;11.40;4.50;;;21.40;99.90;;;;;;5068234;28;20476;-60
2021/09/02 07:46:11;;;;;;;12.90;4.10;;;21.50;99.90;;;;;;5068016;28;20028;-55
2021/09/02 07:48:37;;;;;;;7.32;3.92;;;21.60;99.90;;;;;;5070802;28;20055;-56
2021/09/02 07:51:03;;;;;;;7.57;4.15;;;21.70;99.90;;;;;;5069602;28;20104;-56
2021/09/02 07:53:30;;;;;;;7.78;4.57;;;21.80;99.90;;;;;;5078070;28;20143;-55
2021/09/02 07:55:56;;;;;;;9.73;4.32;;;21.70;99.90;;;;;;5086885;28;20119;-57
2021/09/02 07:58:21;;;;;;;8.13;4.43;;;21.80;99.90;;;;;;5088917;28;20016;-56
2021/09/02 08:00:48;;;;;;;7.80;4.22;;;21.90;99.90;;;;;;5085644;28;20023;-60
2021/09/02 08:03:14;;;;;;;6.93;3.40;;;21.80;99.90;;;;;;5088988;28;20051;-56
2021/09/02 08:05:39;;;;;;;5.70;3.75;;;21.90;99.90;;;;;;5087172;28;20074;-57
2021/09/02 08:08:06;;;;;;;5.15;4.10;;;21.90;99.90;;;;;;5086816;28;20024;-56
2021/09/02 08:10:32;;;;;;;4.75;3.65;;;22.10;99.90;;;;;;5088288;28;20078;-55
2021/09/02 08:12:58;;;;;;;5.47;3.33;;;22.30;99.70;;;;;;5087867;28;20031;-55
2021/09/02 08:15:24;;;;;;;6.55;3.60;;;22.40;99.40;;;;;;5087407;28;20446;-57
2021/09/02 08:17:50;;;;;;;7.45;4.50;;;22.50;99.60;;;;;;5087891;28;20024;-56
2021/09/02 08:20:16;;;;;;;12.85;4.95;;;22.80;98.90;;;;;;5088748;28;20020;-55
2021/09/02 08:22:42;;;;;;;13.82;5.38;;;22.80;99.90;;;;;;5088246;28;20020;-53
2021/09/02 08:25:11;;;;;;;7.75;4.47;;;22.70;98.90;;;;;;5087748;28;20477;-54
2021/09/02 08:27:37;;;;;;;10.13;5.22;;;22.70;99.70;;;;;;5087993;28;20075;-52
2021/09/02 08:30:04;;;;;;;13.10;5.20;;;22.90;99.00;;;;;;5086909;28;20024;-53
2021/09/02 08:32:30;;;;;;;19.75;6.05;;;23.10;99.10;;;;;;5087933;28;20119;-53
2021/09/02 08:34:55;;;;;;;15.90;6.10;;;23.20;99.00;;;;;;5086164;28;20469;-56
2021/09/02 08:37:21;;;;;;;13.95;5.03;;;23.30;99.90;;;;;;5087298;28;20028;-56
2021/09/02 08:39:47;;;;;;;7.10;5.13;;;23.50;99.10;;;;;;5087357;28;20031;-61
2021/09/02 08:42:16;;;;;;;10.90;5.65;;;23.60;98.90;;;;;;5089375;28;20027;-67
2021/09/02 08:44:43;;;;;;;9.00;5.00;;;23.60;98.50;;;;;;5091214;28;20032;-66
2021/09/02 08:47:11;;;;;;;7.57;5.03;;;23.30;98.10;;;;;;5091510;28;20474;-66
2021/09/02 08:49:37;;;;;;;12.40;5.60;;;23.50;98.50;;;;;;5093090;28;20561;-66
2021/09/02 08:52:06;;;;;;;8.85;5.10;;;23.40;99.90;;;;;;5091474;28;20024;-66
2021/09/02 08:54:32;;;;;;;7.22;4.93;;;23.50;97.70;;;;;;5091629;28;20115;-66
2021/09/02 08:56:58;;;;;;;11.18;5.30;;;23.30;98.10;;;;;;5092654;28;20021;-67
2021/09/02 08:59:24;;;;;;;8.45;5.35;;;23.50;98.20;;;;;;5089134;28;20032;-66
2021/09/02 09:01:50;;;;;;;9.38;5.63;;;23.70;97.30;;;;;;5086944;28;20024;-66
2021/09/02 09:04:16;;;;;;;6.22;5.20;;;24.00;97.70;;;;;;5091832;28;20488;-66
2021/09/02 09:06:42;;;;;;;9.52;5.50;;;23.80;96.80;;;;;;5093802;28;20027;-66
2021/09/02 09:09:15;;;;;;;6.38;5.25;;;23.90;97.60;;;;;;5091509;28;20460;-67
2021/09/02 09:11:47;;;;;;;10.07;5.30;;;24.10;97.30;;;;;;5092066;28;20134;-66
2021/09/02 09:14:25;;;;;;;11.82;5.93;;;24.40;96.40;;;;;;5092425;28;20024;-67
2021/09/02 09:16:58;;;;;;;11.13;6.10;;;24.00;96.00;;;;;;5093045;28;20072;-66
2021/09/02 09:19:53;;;;;;;9.63;6.63;;;23.20;96.60;;;;;;5091729;28;20032;-66
2021/09/02 09:22:23;;;;;;;8.35;5.93;;;23.20;97.60;;;;;;5091842;28;20027;-67
2021/09/02 09:24:54;;;;;;;10.48;5.90;;;23.20;97.60;;;;;;5091150;28;20048;-67
2021/09/02 09:27:55;;;;;;;8.52;5.90;;;23.80;97.40;;;;;;5093429;28;20024;-67
2021/09/02 09:30:22;;;;;;;8.05;6.03;;;24.10;96.40;;;;;;5091272;28;20118;-65
2021/09/02 09:32:49;;;;;;;11.20;6.03;;;24.40;96.30;;;;;;5092008;28;20070;-66
2021/09/02 09:35:43;;;;;;;9.02;6.10;;;24.60;96.10;;;;;;5091472;28;20065;-67
2021/09/02 09:38:16;;;;;;;8.50;5.47;;;24.90;95.50;;;;;;5092695;28;20024;-66
2021/09/02 09:40:47;;;;;;;10.10;5.47;;;24.90;95.40;;;;;;5091761;28;20129;-66
2021/09/02 09:43:20;;;;;;;8.20;5.60;;;24.60;94.90;;;;;;5091389;28;20032;-66
2021/09/02 09:45:54;;;;;;;7.13;5.60;;;23.70;96.00;;;;;;5091701;28;20024;-66
2021/09/02 09:48:20;;;;;;;9.68;6.32;;;23.80;96.20;;;;;;5091785;28;20031;-67
2021/09/02 09:50:47;;;;;;;10.63;6.15;;;23.90;96.50;;;;;;5091473;28;20020;-66
2021/09/02 09:53:28;;;;;;;9.30;5.88;;;24.30;95.90;;;;;;5090769;28;20438;-66
2021/09/02 09:55:55;;;;;;;11.40;6.60;;;24.50;95.70;;;;;;5091818;28;20043;-66
2021/09/02 09:58:22;;;;;;;9.85;6.10;;;24.80;95.70;;;;;;5092707;28;20032;-67
2021/09/02 10:00:59;;;;;;;15.38;5.65;;;24.90;94.90;;;;;;5090682;28;20031;-67
2021/09/02 10:03:25;;;;;;;6.43;4.50;;;25.00;94.60;;;;;;5091053;28;20051;-66
2021/09/02 10:05:52;;;;;;;8.23;5.90;;;25.20;94.50;;;;;;5090572;28;20081;-67
2021/09/02 10:08:19;;;;;;;8.18;5.22;;;25.80;94.40;;;;;;5091361;28;20480;-66
2021/09/02 10:10:49;;;;;;;7.45;5.05;;;26.10;93.50;;;;;;5091138;28;20350;-65
2021/09/02 10:13:16;;;;;;;11.10;5.90;;;25.80;93.90;;;;;;5091336;28;20058;-67
2021/09/02 10:15:42;;;;;;;10.30;6.18;;;26.10;93.40;;;;;;5091180;28;20469;-66
2021/09/02 10:18:09;;;;;;;8.02;5.50;;;26.20;93.10;;;;;;5092133;28;20058;-66
2021/09/02 10:20:37;;;;;;;9.85;5.50;;;25.60;93.20;;;;;;5092101;28;20025;-66
2021/09/02 10:23:05;;;;;;;6.97;4.80;;;25.70;93.30;;;;;;5090069;28;20091;-67
2021/09/02 10:25:34;;;;;;;11.02;5.90;;;26.10;93.40;;;;;;5092747;28;20063;-67
2021/09/02 10:28:02;;;;;;;9.43;5.57;;;26.50;92.90;;;;;;5091987;28;20031;-67
2021/09/02 10:30:29;;;;;;;10.57;5.68;;;27.00;92.70;;;;;;5090729;28;20164;-66
2021/09/02 10:32:57;;;;;;;8.43;5.13;;;27.00;91.40;;;;;;5091309;28;20107;-67
2021/09/02 10:35:26;;;;;;;6.75;4.57;;;26.80;91.80;;;;;;5090535;28;20055;-65
2021/09/02 10:37:53;;;;;;;6.97;5.20;;;26.80;91.30;;;;;;5091135;28;20035;-74
2021/09/02 10:40:19;;;;;;;10.30;5.63;;;26.60;91.40;;;;;;5092074;28;20115;-66
2021/09/02 10:42:53;;;;;;;8.57;4.95;;;26.00;91.60;;;;;;5092142;28;20433;-67
2021/09/02 10:45:24;;;;;;;7.60;5.07;;;25.70;91.50;;;;;;5092011;28;20024;-67
2021/09/02 10:47:55;;;;;;;10.50;5.20;;;25.90;91.50;;;;;;5091726;28;20038;-67
2021/09/02 10:50:27;;;;;;;6.93;5.07;;;25.80;92.00;;;;;;5090608;28;20031;-67
2021/09/02 10:52:53;;;;;;;9.50;4.68;;;26.40;92.40;;;;;;5091326;28;20028;-70
2021/09/02 10:55:29;;;;;;;11.57;5.93;;;26.50;92.20;;;;;;5090005;28;20036;-67
2021/09/02 10:57:57;;;;;;;10.45;5.45;;;26.30;91.20;;;;;;5089705;28;20089;-68
2021/09/02 11:00:41;;;;;;;6.60;4.63;;;26.00;91.80;;;;;;5090068;28;20103;-66
2021/09/02 11:03:17;;;;;;;10.15;5.13;;;26.40;92.00;;;;;;5091241;28;20168;-67
2021/09/02 11:05:56;;;;;;;6.70;4.88;;;26.90;91.50;;;;;;5090279;28;20024;-67
2021/09/02 11:08:51;;;;;;;7.30;4.68;;;27.40;90.20;;;;;;5089546;28;20031;-67
2021/09/02 11:11:20;;;;;;;8.80;4.68;;;27.70;90.10;;;;;;4992212;28;20061;-67
2021/09/02 11:13:47;;;;;;;9.70;5.53;;;27.40;88.70;;;;;;4992300;28;20022;-67
2021/09/02 11:16:18;;;;;;;6.13;4.60;;;27.60;88.20;;;;;;5008199;28;20417;-67
2021/09/02 11:18:48;;;;;;;;;;;26.90;88.20;;;;;;5009664;28;20448;-68
2021/09/02 11:21:19;;;;;;;10.68;5.43;;;27.00;89.50;;;;;;5007948;28;19983;-67
2021/09/02 11:23:46;;;;;;;5.38;4.82;;;27.40;89.10;;;;;;4991593;28;20144;-67
2021/09/02 11:26:34;;;;;;;9.95;5.15;;;27.30;88.00;;;;;;4991338;28;20490;-67
2021/09/02 11:29:00;;;;;;;7.95;4.55;;;26.80;88.00;;;;;;4991359;28;20034;-67
2021/09/02 11:31:27;;;;;;;25.67;7.05;;;26.80;88.50;;;;;;4991887;28;20044;-67
2021/09/02 11:33:54;;;;;;;9.18;4.75;;;26.60;88.10;;;;;;4991825;28;20041;-68
2021/09/02 11:36:21;;;;;;;6.10;4.35;;;26.20;87.50;;;;;;4975686;28;20042;-67
2021/09/02 11:38:49;;;;;;;7.78;4.15;;;26.10;88.80;;;;;;4991669;28;20080;-68
2021/09/02 11:41:23;;;;;;;10.45;4.32;;;26.20;88.30;;;;;;4991138;28;20458;-68
2021/09/02 11:43:52;;;;;;;6.00;4.53;;;26.30;88.30;;;;;;4991988;28;20022;-67
2021/09/02 11:46:20;;;;;;;8.27;4.32;;;26.20;88.00;;;;;;5007622;28;20034;-68
2021/09/02 11:48:52;;;;;;;7.28;3.65;;;26.00;87.20;;;;;;5085071;28;20059;-67
2021/09/02 11:51:23;;;;;;;6.10;3.72;;;26.40;88.60;;;;;;5088348;28;20127;-67
2021/09/02 11:54:02;;;;;;;7.80;4.55;;;26.80;87.20;;;;;;5089842;28;20488;-67
2021/09/02 11:56:28;;;;;;;5.85;4.03;;;26.20;86.70;;;;;;5088807;28;20032;-67
2021/09/02 11:58:59;;;;;;;4.30;3.88;;;26.00;87.40;;;;;;5089242;28;20100;-67
2021/09/02 12:01:25;;;;;;;5.47;4.23;;;25.80;86.40;;;;;;5089086;28;20039;-67
2021/09/02 12:03:52;;;;;;;5.20;3.45;;;26.00;85.30;;;;;;5089127;28;20024;-67
2021/09/02 12:06:26;;;;;;;4.68;3.88;;;26.50;86.80;;;;;;5088328;28;20028;-68
2021/09/02 12:08:52;;;;;;;6.50;3.60;;;26.40;85.20;;;;;;5088328;28;20039;-67
2021/09/02 12:11:22;;;;;;;3.67;3.38;;;26.50;84.30;;;;;;5087344;28;20020;-67
2021/09/02 12:13:48;;;;;;;6.07;3.25;;;26.90;84.20;;;;;;5088323;28;20020;-67
2021/09/02 12:16:17;;;;;;;6.47;3.40;;;27.40;83.60;;;;;;5089251;28;20096;-68
2021/09/02 12:18:45;;;;;;;4.07;3.03;;;28.00;82.80;;;;;;5090329;28;20028;-67
2021/09/02 12:21:15;;;;;;;7.10;3.97;;;28.60;81.60;;;;;;5092657;28;20229;-69
2021/09/02 12:23:45;;;;;;;9.80;3.77;;;28.20;79.90;;;;;;5092780;28;20048;-68
2021/09/02 12:26:11;;;;;;;4.57;3.95;;;27.20;82.50;;;;;;5093902;28;20258;-68
2021/09/02 12:28:43;;;;;;;7.45;4.50;;;26.50;85.10;;;;;;5094401;28;20107;-68
2021/09/02 12:31:16;;;;;;;5.47;3.67;;;26.40;86.40;;;;;;5093183;28;20543;-68
2021/09/02 12:34:02;;;;;;;9.38;3.90;;;26.20;86.80;;;;;;5092711;28;20036;-67
2021/09/02 12:36:30;;;;;;;8.68;4.45;;;26.30;87.50;;;;;;5094012;28;20508;-67
2021/09/02 12:39:30;;;;;;;8.13;4.47;;;26.40;87.60;;;;;;5092890;28;20122;-68
2021/09/02 12:42:06;;;;;;;6.95;3.40;;;26.60;85.20;;;;;;5091608;28;20059;-68
2021/09/02 12:44:37;;;;;;;6.20;4.13;;;26.60;85.10;;;;;;5093731;28;20035;-68
2021/09/02 12:47:19;;;;;;;4.85;3.75;;;26.60;86.20;;;;;;5092559;28;20106;-68